createdAt,value
2018-07-23T00:02:26.773Z,24.70
2018-07-23T00:04:57.945Z,24.50
2018-07-23T00:07:29.185Z,24.50
2018-07-23T00:10:00.437Z,24.20
2018-07-23T00:12:31.812Z,24.10
2018-07-23T00:15:02.867Z,23.90
2018-07-23T00:17:34.139Z,23.70
2018-07-23T00:20:05.485Z,23.50
2018-07-23T00:22:36.961Z,23.20
2018-07-23T00:25:08.317Z,23.10
2018-07-23T00:27:39.698Z,22.90
2018-07-23T00:30:11.081Z,22.90
2018-07-23T00:32:42.459Z,22.80
2018-07-23T00:35:13.793Z,22.90
2018-07-23T00:37:45.414Z,22.90
2018-07-23T00:40:16.782Z,22.90
2018-07-23T00:42:48.335Z,22.90
2018-07-23T00:45:19.543Z,22.90
2018-07-23T00:47:50.922Z,22.90
2018-07-23T00:50:22.129Z,22.90
2018-07-23T00:52:53.362Z,22.90
2018-07-23T00:55:24.753Z,22.90
2018-07-23T00:57:55.931Z,22.70
2018-07-23T01:00:27.170Z,22.60
2018-07-23T01:03:02.256Z,22.50
2018-07-23T01:05:35.468Z,22.30
2018-07-23T01:08:44.272Z,22.20
2018-07-23T01:11:15.534Z,22.20
2018-07-23T01:13:47.016Z,22.10
2018-07-23T01:16:19.118Z,22.20
2018-07-23T01:18:58.977Z,22.30
2018-07-23T01:21:30.582Z,22.30
2018-07-23T01:24:01.845Z,22.30
2018-07-23T01:26:33.522Z,22.40
2018-07-23T01:29:05.959Z,22.40
2018-07-23T01:31:37.533Z,22.30
2018-07-23T01:34:08.629Z,22.20
2018-07-23T01:36:39.849Z,22.20
2018-07-23T01:39:12.079Z,22.20
2018-07-23T01:41:43.402Z,22.20
2018-07-23T01:44:14.968Z,22.20
2018-07-23T01:46:47.256Z,22.20
2018-07-23T01:49:18.991Z,22.30
2018-07-23T01:51:50.794Z,22.30
2018-07-23T01:54:22.534Z,22.30
2018-07-23T01:56:54.470Z,22.30
2018-07-23T01:59:26.155Z,22.40
2018-07-23T02:01:57.686Z,22.50
2018-07-23T02:04:31.414Z,22.50
2018-07-23T02:07:03.152Z,22.50
2018-07-23T02:09:34.692Z,22.60
2018-07-23T02:12:06.752Z,22.60
2018-07-23T02:14:38.062Z,22.50
2018-07-23T02:17:09.397Z,22.30
2018-07-23T02:19:40.657Z,22.00
2018-07-23T02:22:11.930Z,21.80
2018-07-23T02:24:43.201Z,21.60
2018-07-23T02:27:14.373Z,21.40
2018-07-23T02:29:45.581Z,21.40
2018-07-23T02:32:16.764Z,21.50
2018-07-23T02:34:47.914Z,21.30
2018-07-23T02:37:19.307Z,21.20
2018-07-23T02:39:50.558Z,21.10
2018-07-23T02:42:21.861Z,21.10
2018-07-23T02:44:53.264Z,21.10
2018-07-23T02:47:24.930Z,21.00
2018-07-23T02:49:56.285Z,21.00
2018-07-23T02:52:28.011Z,21.10
2018-07-23T02:54:59.383Z,21.10
2018-07-23T02:57:31.072Z,21.00
2018-07-23T03:00:02.454Z,20.90
2018-07-23T03:02:34.459Z,20.80
2018-07-23T03:05:05.784Z,20.70
2018-07-23T03:07:37.238Z,20.60
2018-07-23T03:10:08.890Z,20.50
2018-07-23T03:12:40.238Z,20.50
2018-07-23T03:15:11.610Z,20.50
2018-07-23T03:17:42.879Z,20.60
2018-07-23T03:20:14.228Z,20.60
2018-07-23T03:22:45.685Z,20.60
2018-07-23T03:25:16.822Z,20.60
2018-07-23T03:27:48.121Z,20.60
2018-07-23T03:30:19.450Z,20.60
2018-07-23T03:32:50.672Z,20.70
2018-07-23T03:35:22.065Z,20.70
2018-07-23T03:37:53.425Z,20.80
2018-07-23T03:40:24.746Z,20.90
2018-07-23T03:42:56.148Z,21.00
2018-07-23T03:45:27.513Z,21.00
2018-07-23T03:47:58.942Z,21.00
2018-07-23T03:50:30.459Z,20.90
2018-07-23T03:53:01.692Z,20.90
2018-07-23T03:55:32.856Z,20.90
2018-07-23T03:58:04.150Z,20.90
2018-07-23T04:00:35.407Z,20.80
2018-07-23T04:03:06.575Z,20.70
2018-07-23T04:05:37.730Z,20.70
2018-07-23T04:08:09.087Z,20.80
2018-07-23T04:10:40.215Z,20.80
2018-07-23T04:13:11.575Z,20.70
2018-07-23T04:15:42.703Z,20.60
2018-07-23T04:18:13.850Z,20.40
2018-07-23T04:20:45.162Z,20.30
2018-07-23T04:25:46.624Z,20.10
2018-07-23T04:28:17.921Z,20.10
2018-07-23T04:30:49.035Z,20.20
2018-07-23T04:33:20.193Z,20.10
2018-07-23T04:35:51.516Z,20.20
2018-07-23T04:38:22.828Z,20.20
2018-07-23T04:40:54.115Z,20.20
2018-07-23T04:43:25.310Z,20.20
2018-07-23T04:45:56.671Z,20.20
2018-07-23T04:48:27.791Z,20.30
2018-07-23T04:50:59.214Z,20.30
2018-07-23T04:53:30.590Z,20.20
2018-07-23T04:56:02.237Z,20.20
2018-07-23T04:58:33.925Z,20.20
2018-07-23T05:01:05.367Z,20.10
2018-07-23T05:03:36.577Z,20.20
2018-07-23T05:06:07.897Z,20.10
2018-07-23T05:08:39.307Z,20.10
2018-07-23T05:11:10.503Z,20.10
2018-07-23T05:13:41.743Z,20.40
2018-07-23T05:16:12.914Z,20.40
2018-07-23T05:18:44.101Z,20.40
2018-07-23T05:21:15.482Z,20.30
2018-07-23T05:23:47.023Z,20.30
2018-07-23T05:26:18.438Z,20.20
2018-07-23T05:28:49.654Z,20.30
2018-07-23T05:31:20.986Z,20.30
2018-07-23T05:33:52.356Z,20.30
2018-07-23T05:36:23.859Z,20.30
2018-07-23T05:38:55.151Z,20.30
2018-07-23T05:41:26.662Z,20.30
2018-07-23T05:43:57.903Z,20.30
2018-07-23T05:46:29.214Z,20.20
2018-07-23T05:49:00.455Z,20.20
2018-07-23T05:51:31.837Z,20.30
2018-07-23T05:54:03.140Z,20.20
2018-07-23T05:56:34.298Z,20.20
2018-07-23T05:59:05.630Z,20.20
2018-07-23T06:01:37.035Z,20.10
2018-07-23T06:04:08.567Z,20.10
2018-07-23T06:06:39.717Z,20.10
2018-07-23T06:09:11.809Z,20.20
2018-07-23T06:11:42.942Z,20.10
2018-07-23T06:14:14.429Z,20.20
2018-07-23T06:16:45.787Z,20.10
2018-07-23T06:19:17.299Z,20.10
2018-07-23T06:21:48.430Z,20.10
2018-07-23T06:24:19.736Z,20.10
2018-07-23T06:26:51.167Z,20.10
2018-07-23T06:29:22.954Z,20.00
2018-07-23T06:31:54.232Z,20.00
2018-07-23T06:34:25.575Z,20.00
2018-07-23T06:36:56.942Z,20.00
2018-07-23T06:39:28.235Z,20.00
2018-07-23T06:41:59.568Z,20.00
2018-07-23T06:44:30.745Z,20.00
2018-07-23T06:47:02.083Z,20.00
2018-07-23T06:49:33.336Z,20.10
2018-07-23T06:52:04.754Z,20.10
2018-07-23T06:54:36.047Z,20.00
2018-07-23T06:57:07.809Z,20.00
2018-07-23T06:59:39.139Z,20.00
2018-07-23T07:02:10.441Z,19.90
2018-07-23T07:04:41.897Z,19.90
2018-07-23T07:07:13.361Z,20.00
2018-07-23T07:09:45.022Z,20.00
2018-07-23T07:12:16.455Z,20.00
2018-07-23T07:14:47.838Z,19.90
2018-07-23T07:17:19.274Z,19.90
2018-07-23T07:19:50.566Z,19.90
2018-07-23T07:22:21.816Z,19.80
2018-07-23T07:24:52.856Z,19.80
2018-07-23T07:27:24.039Z,19.80
2018-07-23T07:29:55.100Z,19.80
2018-07-23T07:32:26.365Z,19.90
2018-07-23T07:34:57.589Z,19.80
2018-07-23T07:37:28.695Z,19.90
2018-07-23T07:39:59.899Z,19.90
2018-07-23T07:42:31.276Z,19.90
2018-07-23T07:45:02.980Z,19.90
2018-07-23T07:47:34.476Z,19.80
2018-07-23T07:50:05.733Z,19.80
2018-07-23T07:52:36.978Z,19.80
2018-07-23T07:55:08.356Z,19.70
2018-07-23T07:57:39.739Z,19.70
2018-07-23T08:00:11.054Z,19.70
2018-07-23T08:02:42.477Z,19.70
2018-07-23T08:05:13.721Z,19.70
2018-07-23T08:07:44.948Z,19.70
2018-07-23T08:10:16.317Z,19.70
2018-07-23T08:12:47.515Z,19.70
2018-07-23T08:15:18.814Z,19.80
2018-07-23T08:17:50.107Z,19.70
2018-07-23T08:20:21.330Z,19.60
2018-07-23T08:22:52.433Z,19.60
2018-07-23T08:25:23.840Z,19.60
2018-07-23T08:27:55.327Z,19.60
2018-07-23T08:30:27.380Z,19.60
2018-07-23T08:32:58.629Z,19.60
2018-07-23T08:35:29.853Z,19.50
2018-07-23T08:38:01.295Z,19.50
2018-07-23T08:40:32.536Z,19.40
2018-07-23T08:43:03.747Z,19.40
2018-07-23T08:45:35.055Z,19.30
2018-07-23T08:48:06.467Z,19.30
2018-07-23T08:50:37.696Z,19.30
2018-07-23T08:53:09.207Z,19.30
2018-07-23T08:55:40.546Z,19.30
2018-07-23T08:58:11.840Z,19.30
2018-07-23T09:00:43.145Z,19.30
2018-07-23T09:03:14.772Z,19.30
2018-07-23T09:05:46.038Z,19.30
2018-07-23T09:08:17.554Z,19.30
2018-07-23T09:10:48.906Z,19.30
2018-07-23T09:13:20.386Z,19.40
2018-07-23T09:15:51.627Z,19.40
2018-07-23T09:18:22.753Z,19.30
2018-07-23T09:20:53.955Z,19.30
2018-07-23T09:25:55.764Z,19.30
2018-07-23T09:28:27.033Z,19.40
2018-07-23T09:30:58.417Z,19.40
2018-07-23T09:33:29.559Z,19.40
2018-07-23T09:36:00.897Z,19.40
2018-07-23T09:38:32.306Z,19.40
2018-07-23T09:41:03.779Z,19.40
2018-07-23T09:43:35.162Z,19.50
2018-07-23T09:46:06.624Z,19.50
2018-07-23T09:48:38.045Z,19.40
2018-07-23T09:51:09.390Z,19.50
2018-07-23T09:53:40.808Z,19.50
2018-07-23T09:56:12.294Z,19.50
2018-07-23T09:58:43.609Z,19.50
2018-07-23T10:01:18.919Z,19.40
2018-07-23T10:03:50.619Z,19.50
2018-07-23T10:06:22.247Z,19.50
2018-07-23T10:08:53.568Z,19.40
2018-07-23T10:11:24.907Z,19.40
2018-07-23T10:13:56.319Z,19.30
2018-07-23T10:16:27.793Z,19.40
2018-07-23T10:18:59.035Z,19.40
2018-07-23T10:21:30.237Z,19.50
2018-07-23T10:24:01.547Z,19.50
2018-07-23T10:26:32.695Z,19.50
2018-07-23T10:29:03.937Z,19.60
2018-07-23T10:31:35.285Z,19.60
2018-07-23T10:34:06.788Z,19.70
2018-07-23T10:36:38.006Z,19.70
2018-07-23T10:39:11.047Z,19.80
2018-07-23T10:41:42.332Z,19.80
2018-07-23T10:44:13.517Z,19.90
2018-07-23T10:46:44.782Z,19.90
2018-07-23T10:49:16.156Z,20.00
2018-07-23T10:51:47.477Z,20.00
2018-07-23T10:54:18.701Z,20.10
2018-07-23T10:56:49.932Z,20.20
2018-07-23T10:59:21.185Z,20.40
2018-07-23T11:01:52.530Z,20.50
2018-07-23T11:04:24.061Z,20.60
2018-07-23T11:06:55.376Z,20.60
2018-07-23T11:09:26.816Z,20.60
2018-07-23T11:11:57.977Z,20.70
2018-07-23T11:19:29.690Z,21.00
2018-07-23T11:22:00.974Z,21.00
2018-07-23T11:24:32.209Z,21.10
2018-07-23T11:27:03.615Z,21.20
2018-07-23T11:29:34.909Z,21.20
2018-07-23T11:32:06.267Z,21.30
2018-07-23T11:34:37.420Z,21.50
2018-07-23T11:37:08.759Z,21.70
2018-07-23T11:39:39.927Z,21.80
2018-07-23T11:42:11.554Z,21.80
2018-07-23T11:44:42.681Z,21.80
2018-07-23T11:47:14.131Z,21.80
2018-07-23T11:49:45.374Z,22.10
2018-07-23T11:52:16.605Z,22.50
2018-07-23T11:54:47.894Z,22.70
2018-07-23T11:57:19.070Z,22.70
2018-07-23T11:59:50.255Z,22.50
2018-07-23T12:02:21.495Z,22.70
2018-07-23T12:04:52.586Z,22.70
2018-07-23T12:07:23.862Z,22.70
2018-07-23T12:09:55.019Z,22.70
2018-07-23T12:12:26.353Z,22.60
2018-07-23T12:14:57.482Z,22.50
2018-07-23T12:17:29.047Z,22.50
2018-07-23T12:20:00.481Z,22.60
2018-07-23T12:25:02.109Z,22.90
2018-07-23T12:27:33.288Z,23.20
2018-07-23T12:30:04.641Z,23.30
2018-07-23T12:32:35.744Z,23.50
2018-07-23T12:35:07.145Z,23.70
2018-07-23T12:37:38.473Z,23.80
2018-07-23T12:40:09.485Z,23.90
2018-07-23T12:42:40.802Z,23.90
2018-07-23T12:45:12.013Z,24.10
2018-07-23T12:47:43.287Z,24.30
2018-07-23T12:50:14.829Z,24.70
2018-07-23T12:52:46.068Z,24.80
2018-07-23T12:55:17.412Z,25.20
2018-07-23T12:57:48.782Z,25.00
2018-07-23T13:00:20.015Z,24.90
2018-07-23T13:05:23.945Z,24.70
2018-07-23T13:07:55.800Z,25.00
2018-07-23T13:10:27.022Z,25.10
2018-07-23T13:12:58.531Z,25.20
2018-07-23T13:15:29.645Z,25.50
2018-07-23T13:18:00.985Z,25.60
2018-07-23T13:20:32.268Z,25.90
2018-07-23T13:23:03.540Z,26.20
2018-07-23T13:25:34.664Z,25.90
2018-07-23T13:28:05.771Z,25.90
2018-07-23T13:30:36.998Z,26.40
2018-07-23T13:33:08.815Z,26.40
2018-07-23T13:35:39.879Z,26.00
2018-07-23T13:38:11.193Z,26.30
2018-07-23T13:40:42.577Z,26.50
2018-07-23T13:43:13.810Z,26.60
2018-07-23T13:45:45.108Z,26.30
2018-07-23T13:48:16.406Z,26.20
2018-07-23T13:50:51.835Z,26.20
2018-07-23T13:53:23.044Z,26.40
2018-07-23T13:55:54.363Z,26.40
2018-07-23T13:58:25.615Z,26.80
2018-07-23T14:00:56.845Z,26.90
2018-07-23T14:03:28.041Z,26.60
2018-07-23T14:05:59.428Z,27.00
2018-07-23T14:08:30.612Z,26.90
2018-07-23T14:11:02.204Z,27.30
2018-07-23T14:13:33.947Z,28.30
2018-07-23T14:16:05.144Z,28.30
2018-07-23T14:18:36.385Z,28.40
2018-07-23T14:21:07.756Z,28.10
2018-07-23T14:23:39.176Z,28.50
2018-07-23T14:26:10.383Z,28.70
2018-07-23T14:28:41.620Z,29.50
2018-07-23T14:31:12.814Z,29.80
2018-07-23T14:33:44.010Z,29.70
2018-07-23T14:36:15.289Z,29.30
2018-07-23T14:38:46.410Z,29.40
2018-07-23T14:41:17.528Z,29.50
2018-07-23T14:43:48.644Z,29.40
2018-07-23T14:46:19.868Z,29.40
2018-07-23T14:48:51.062Z,30.10
2018-07-23T14:51:22.131Z,30.80
2018-07-23T14:53:53.197Z,30.80
2018-07-23T14:56:24.364Z,30.50
2018-07-23T14:58:55.498Z,30.00
2018-07-23T15:01:26.759Z,29.90
2018-07-23T15:03:57.891Z,29.90
2018-07-23T15:06:29.111Z,29.80
2018-07-23T15:09:00.321Z,29.70
2018-07-23T15:11:31.361Z,29.50
2018-07-23T15:16:32.614Z,29.40
2018-07-23T15:19:04.057Z,29.40
2018-07-23T15:21:35.278Z,29.60
2018-07-23T15:24:06.535Z,29.80
2018-07-23T15:26:38.080Z,29.50
2018-07-23T15:29:09.274Z,29.50
2018-07-23T15:31:40.337Z,29.90
2018-07-23T15:34:11.411Z,30.30
2018-07-23T15:36:42.786Z,30.20
2018-07-23T15:39:14.038Z,30.10
2018-07-23T15:41:45.268Z,30.10
2018-07-23T15:44:16.507Z,30.00
2018-07-23T15:46:47.909Z,29.90
2018-07-23T15:49:19.053Z,30.20
2018-07-23T15:51:50.142Z,30.50
2018-07-23T15:56:51.601Z,31.00
2018-07-23T15:59:22.670Z,31.40
2018-07-23T16:01:53.812Z,31.40
2018-07-23T16:04:25.001Z,31.50
2018-07-23T16:06:56.354Z,31.70
2018-07-23T16:09:27.802Z,31.20
2018-07-23T16:11:58.913Z,30.60
2018-07-23T16:17:00.361Z,29.80
